sensor_id;sensor_type;location;lat;lon;timestamp;pressure;altitude;pressure_sealevel;temperature;humidity
13420;BME280;6781;58.440;15.470;2023-05-12T00:00:59;101704.25;;;9.89;100.00
13420;BME280;6781;58.440;15.470;2023-05-12T00:03:26;101620.72;;;9.26;100.00
13420;BME280;6781;58.440;15.470;2023-05-12T00:05:54;101665.75;;;9.53;100.00
13420;BME280;6781;58.440;15.470;2023-05-12T00:08:22;101721.69;;;9.71;100.00
13420;BME280;6781;58.440;15.470;2023-05-12T00:10:49;101724.97;;;9.89;100.00
13420;BME280;6781;58.440;15.470;2023-05-12T00:13:16;101745.53;;;9.92;100.00
13420;BME280;6781;58.440;15.470;2023-05-12T00:15:43;101667.59;;;9.51;100.00
13420;BME280;6781;58.440;15.470;2023-05-12T00:18:10;101761.72;;;9.96;100.00
13420;BME280;6781;58.440;15.470;2023-05-12T00:20:37;101762.59;;;9.81;100.00
13420;BME280;6781;58.440;15.470;2023-05-12T00:23:06;101728.69;;;9.69;100.00
13420;BME280;6781;58.440;15.470;2023-05-12T00:25:33;101673.97;;;9.30;100.00
13420;BME280;6781;58.440;15.470;2023-05-12T00:28:00;101706.09;;;9.41;100.00
13420;BME280;6781;58.440;15.470;2023-05-12T00:30:27;101711.88;;;9.31;100.00
13420;BME280;6781;58.440;15.470;2023-05-12T00:32:54;101784.00;;;9.84;100.00
13420;BME280;6781;58.440;15.470;2023-05-12T00:35:21;101604.16;;;8.67;100.00
13420;BME280;6781;58.440;15.470;2023-05-12T00:37:48;101592.75;;;8.39;100.00
13420;BME280;6781;58.440;15.470;2023-05-12T00:40:17;101817.94;;;9.79;100.00
13420;BME280;6781;58.440;15.470;2023-05-12T00:42:44;101698.69;;;8.57;100.00
13420;BME280;6781;58.440;15.470;2023-05-12T00:45:11;101623.34;;;8.14;100.00
13420;BME280;6781;58.440;15.470;2023-05-12T00:47:38;101737.28;;;9.08;100.00
13420;BME280;6781;58.440;15.470;2023-05-12T00:50:12;101802.84;;;9.56;100.00
13420;BME280;6781;58.440;15.470;2023-05-12T00:52:39;101786.03;;;9.32;100.00
13420;BME280;6781;58.440;15.470;2023-05-12T00:55:07;101809.50;;;9.60;100.00
13420;BME280;6781;58.440;15.470;2023-05-12T00:57:35;101763.06;;;9.26;100.00
13420;BME280;6781;58.440;15.470;2023-05-12T01:00:03;101806.59;;;9.51;100.00
13420;BME280;6781;58.440;15.470;2023-05-12T01:02:31;101733.94;;;9.06;100.00
13420;BME280;6781;58.440;15.470;2023-05-12T01:04:58;101605.03;;;8.19;100.00
13420;BME280;6781;58.440;15.470;2023-05-12T01:07:26;101808.59;;;9.30;100.00
13420;BME280;6781;58.440;15.470;2023-05-12T01:09:53;101644.97;;;8.46;100.00
13420;BME280;6781;58.440;15.470;2023-05-12T01:12:21;101718.53;;;8.72;100.00
13420;BME280;6781;58.440;15.470;2023-05-12T01:14:50;101703.03;;;8.56;100.00
13420;BME280;6781;58.440;15.470;2023-05-12T01:17:21;101835.22;;;9.32;100.00
13420;BME280;6781;58.440;15.470;2023-05-12T01:19:52;101828.75;;;9.07;100.00
13420;BME280;6781;58.440;15.470;2023-05-12T01:22:20;101847.31;;;9.16;100.00
13420;BME280;6781;58.440;15.470;2023-05-12T01:24:50;101829.97;;;9.18;100.00
13420;BME280;6781;58.440;15.470;2023-05-12T01:27:20;101632.97;;;7.95;100.00
13420;BME280;6781;58.440;15.470;2023-05-12T01:29:51;101609.22;;;7.71;100.00
13420;BME280;6781;58.440;15.470;2023-05-12T01:32:21;101808.53;;;8.98;100.00
13420;BME280;6781;58.440;15.470;2023-05-12T01:34:48;101806.53;;;8.88;100.00
13420;BME280;6781;58.440;15.470;2023-05-12T01:37:16;101829.34;;;9.12;100.00
13420;BME280;6781;58.440;15.470;2023-05-12T01:39:43;101792.94;;;8.67;100.00
13420;BME280;6781;58.440;15.470;2023-05-12T01:42:10;101703.91;;;8.22;100.00
13420;BME280;6781;58.440;15.470;2023-05-12T01:44:38;101692.06;;;8.18;100.00
13420;BME280;6781;58.440;15.470;2023-05-12T01:47:05;101612.03;;;7.49;100.00
13420;BME280;6781;58.440;15.470;2023-05-12T01:49:34;101844.94;;;8.95;100.00
13420;BME280;6781;58.440;15.470;2023-05-12T01:52:04;101716.06;;;8.20;100.00
13420;BME280;6781;58.440;15.470;2023-05-12T01:54:31;101768.22;;;8.45;100.00
13420;BME280;6781;58.440;15.470;2023-05-12T01:56:58;101623.28;;;7.48;100.00
13420;BME280;6781;58.440;15.470;2023-05-12T01:59:25;101867.78;;;8.87;100.00
13420;BME280;6781;58.440;15.470;2023-05-12T02:01:54;101699.06;;;7.81;100.00
13420;BME280;6781;58.440;15.470;2023-05-12T02:04:21;101782.06;;;8.44;100.00
13420;BME280;6781;58.440;15.470;2023-05-12T02:09:25;101820.97;;;8.59;100.00
13420;BME280;6781;58.440;15.470;2023-05-12T02:11:52;101843.69;;;8.69;100.00
13420;BME280;6781;58.440;15.470;2023-05-12T02:14:20;101839.91;;;8.59;100.00
13420;BME280;6781;58.440;15.470;2023-05-12T02:16:47;101778.84;;;8.05;100.00
13420;BME280;6781;58.440;15.470;2023-05-12T02:19:18;101694.81;;;7.63;100.00
13420;BME280;6781;58.440;15.470;2023-05-12T02:21:46;101555.41;;;6.77;100.00
13420;BME280;6781;58.440;15.470;2023-05-12T02:24:13;101743.28;;;7.93;100.00
13420;BME280;6781;58.440;15.470;2023-05-12T02:26:41;101653.59;;;7.26;100.00
13420;BME280;6781;58.440;15.470;2023-05-12T02:29:08;101615.19;;;7.02;100.00
13420;BME280;6781;58.440;15.470;2023-05-12T02:31:36;101570.16;;;6.73;100.00
13420;BME280;6781;58.440;15.470;2023-05-12T02:34:03;101842.59;;;8.40;100.00
13420;BME280;6781;58.440;15.470;2023-05-12T02:36:31;101797.53;;;8.10;100.00
13420;BME280;6781;58.440;15.470;2023-05-12T02:39:01;101655.72;;;7.17;100.00
13420;BME280;6781;58.440;15.470;2023-05-12T02:41:28;101596.50;;;6.80;100.00
13420;BME280;6781;58.440;15.470;2023-05-12T02:43:55;101844.69;;;8.32;100.00
13420;BME280;6781;58.440;15.470;2023-05-12T02:46:22;101806.84;;;7.78;100.00
13420;BME280;6781;58.440;15.470;2023-05-12T02:48:49;101847.94;;;8.19;100.00
13420;BME280;6781;58.440;15.470;2023-05-12T02:51:16;101834.16;;;8.01;100.00
13420;BME280;6781;58.440;15.470;2023-05-12T02:53:44;101832.91;;;7.91;100.00
13420;BME280;6781;58.440;15.470;2023-05-12T02:56:11;101611.34;;;6.37;100.00
13420;BME280;6781;58.440;15.470;2023-05-12T02:58:38;101596.41;;;6.06;100.00
13420;BME280;6781;58.440;15.470;2023-05-12T03:01:06;101849.28;;;7.54;100.00
13420;BME280;6781;58.440;15.470;2023-05-12T03:03:33;101719.97;;;6.86;100.00
13420;BME280;6781;58.440;15.470;2023-05-12T03:06:02;101625.69;;;6.24;100.00
13420;BME280;6781;58.440;15.470;2023-05-12T03:08:30;101830.44;;;7.70;100.00
13420;BME280;6781;58.440;15.470;2023-05-12T03:10:59;101819.44;;;7.48;100.00
13420;BME280;6781;58.440;15.470;2023-05-12T03:13:26;101701.53;;;7.12;100.00
13420;BME280;6781;58.440;15.470;2023-05-12T03:15:56;101860.00;;;8.18;100.00
13420;BME280;6781;58.440;15.470;2023-05-12T03:18:25;101866.63;;;8.24;100.00
13420;BME280;6781;58.440;15.470;2023-05-12T03:20:53;101793.84;;;7.79;100.00
13420;BME280;6781;58.440;15.470;2023-05-12T03:23:20;101860.34;;;8.29;100.00
13420;BME280;6781;58.440;15.470;2023-05-12T03:25:47;101765.13;;;7.68;100.00
13420;BME280;6781;58.440;15.470;2023-05-12T03:28:15;101866.22;;;8.33;100.00
13420;BME280;6781;58.440;15.470;2023-05-12T03:30:42;101745.75;;;7.60;100.00
13420;BME280;6781;58.440;15.470;2023-05-12T03:33:09;101750.81;;;7.44;100.00
13420;BME280;6781;58.440;15.470;2023-05-12T03:35:37;101708.22;;;7.16;100.00
13420;BME280;6781;58.440;15.470;2023-05-12T03:38:07;101778.66;;;7.73;100.00
13420;BME280;6781;58.440;15.470;2023-05-12T03:40:37;101882.84;;;8.27;100.00
13420;BME280;6781;58.440;15.470;2023-05-12T03:43:04;101613.44;;;6.67;100.00
13420;BME280;6781;58.440;15.470;2023-05-12T03:45:32;101816.72;;;7.87;100.00
13420;BME280;6781;58.440;15.470;2023-05-12T03:48:01;101796.38;;;7.81;100.00
13420;BME280;6781;58.440;15.470;2023-05-12T03:50:28;101728.75;;;7.37;100.00
13420;BME280;6781;58.440;15.470;2023-05-12T03:52:55;101905.91;;;8.13;100.00
13420;BME280;6781;58.440;15.470;2023-05-12T03:55:22;101835.59;;;7.70;100.00
13420;BME280;6781;58.440;15.470;2023-05-12T03:57:49;101837.41;;;7.87;100.00
13420;BME280;6781;58.440;15.470;2023-05-12T04:00:17;101873.69;;;8.20;100.00
13420;BME280;6781;58.440;15.470;2023-05-12T04:02:48;101879.63;;;8.22;100.00
13420;BME280;6781;58.440;15.470;2023-05-12T04:05:15;101847.03;;;7.83;100.00
13420;BME280;6781;58.440;15.470;2023-05-12T04:07:42;101804.06;;;7.64;100.00
13420;BME280;6781;58.440;15.470;2023-05-12T04:10:10;101876.44;;;8.17;100.00
13420;BME280;6781;58.440;15.470;2023-05-12T04:12:37;101757.91;;;7.39;100.00
13420;BME280;6781;58.440;15.470;2023-05-12T04:15:05;101757.44;;;7.31;100.00
13420;BME280;6781;58.440;15.470;2023-05-12T04:17:32;101853.44;;;7.94;100.00
13420;BME280;6781;58.440;15.470;2023-05-12T04:20:01;101884.13;;;8.19;100.00
13420;BME280;6781;58.440;15.470;2023-05-12T04:22:28;101825.72;;;7.61;100.00
13420;BME280;6781;58.440;15.470;2023-05-12T04:24:56;101883.84;;;8.06;100.00
13420;BME280;6781;58.440;15.470;2023-05-12T04:27:23;101857.34;;;8.02;100.00
13420;BME280;6781;58.440;15.470;2023-05-12T04:29:53;101725.38;;;7.17;100.00
13420;BME280;6781;58.440;15.470;2023-05-12T04:32:20;101838.38;;;7.84;100.00
13420;BME280;6781;58.440;15.470;2023-05-12T04:34:54;101629.03;;;6.64;100.00
13420;BME280;6781;58.440;15.470;2023-05-12T04:37:27;101723.00;;;7.13;100.00
13420;BME280;6781;58.440;15.470;2023-05-12T04:39:57;101757.00;;;7.40;100.00
13420;BME280;6781;58.440;15.470;2023-05-12T04:42:24;101771.63;;;7.58;100.00
13420;BME280;6781;58.440;15.470;2023-05-12T04:44:51;101837.94;;;7.94;100.00
13420;BME280;6781;58.440;15.470;2023-05-12T04:47:18;101912.59;;;8.36;100.00
13420;BME280;6781;58.440;15.470;2023-05-12T04:49:47;101910.34;;;8.28;100.00
13420;BME280;6781;58.440;15.470;2023-05-12T04:52:14;101913.28;;;8.39;100.00
13420;BME280;6781;58.440;15.470;2023-05-12T04:54:46;101921.97;;;8.38;100.00
13420;BME280;6781;58.440;15.470;2023-05-12T04:57:13;101841.00;;;8.02;100.00
13420;BME280;6781;58.440;15.470;2023-05-12T04:59:47;101684.53;;;7.08;100.00
13420;BME280;6781;58.440;15.470;2023-05-12T05:02:15;101900.38;;;8.57;100.00
13420;BME280;6781;58.440;15.470;2023-05-12T05:04:42;101631.13;;;6.93;100.00
13420;BME280;6781;58.440;15.470;2023-05-12T05:07:10;101901.44;;;8.53;100.00
13420;BME280;6781;58.440;15.470;2023-05-12T05:09:42;101713.28;;;7.37;100.00
13420;BME280;6781;58.440;15.470;2023-05-12T05:12:10;101639.44;;;6.98;100.00
13420;BME280;6781;58.440;15.470;2023-05-12T05:14:37;101923.47;;;8.77;100.00
13420;BME280;6781;58.440;15.470;2023-05-12T05:17:08;101825.06;;;8.28;100.00
13420;BME280;6781;58.440;15.470;2023-05-12T05:19:37;101886.19;;;8.81;100.00
13420;BME280;6781;58.440;15.470;2023-05-12T05:22:04;101722.47;;;7.96;100.00
13420;BME280;6781;58.440;15.470;2023-05-12T05:24:31;101921.78;;;9.10;100.00
13420;BME280;6781;58.440;15.470;2023-05-12T05:27:05;101936.59;;;9.24;100.00
13420;BME280;6781;58.440;15.470;2023-05-12T05:29:36;101906.50;;;9.39;100.00
13420;BME280;6781;58.440;15.470;2023-05-12T05:32:10;101933.72;;;9.46;100.00
13420;BME280;6781;58.440;15.470;2023-05-12T05:34:42;101750.25;;;8.60;100.00
13420;BME280;6781;58.440;15.470;2023-05-12T05:37:12;101692.81;;;8.37;100.00
13420;BME280;6781;58.440;15.470;2023-05-12T05:39:39;101737.06;;;8.80;100.00
13420;BME280;6781;58.440;15.470;2023-05-12T05:42:08;101743.28;;;9.09;100.00
13420;BME280;6781;58.440;15.470;2023-05-12T05:44:44;101812.09;;;9.60;100.00
13420;BME280;6781;58.440;15.470;2023-05-12T05:47:11;101907.94;;;10.53;100.00
13420;BME280;6781;58.440;15.470;2023-05-12T05:49:44;101795.03;;;9.88;100.00
13420;BME280;6781;58.440;15.470;2023-05-12T05:52:11;101802.81;;;10.18;100.00
13420;BME280;6781;58.440;15.470;2023-05-12T05:54:40;101751.94;;;10.01;100.00
13420;BME280;6781;58.440;15.470;2023-05-12T05:57:09;101933.38;;;11.06;100.00
13420;BME280;6781;58.440;15.470;2023-05-12T05:59:40;101663.97;;;9.84;100.00
13420;BME280;6781;58.440;15.470;2023-05-12T06:02:08;101792.25;;;10.93;100.00
13420;BME280;6781;58.440;15.470;2023-05-12T06:04:39;101647.56;;;10.27;99.25
13420;BME280;6781;58.440;15.470;2023-05-12T06:07:09;101710.84;;;10.94;95.60
13420;BME280;6781;58.440;15.470;2023-05-12T06:09:38;101737.53;;;11.11;96.18
13420;BME280;6781;58.440;15.470;2023-05-12T06:12:07;101899.13;;;12.12;100.00
13420;BME280;6781;58.440;15.470;2023-05-12T06:14:34;101856.41;;;11.89;100.00
13420;BME280;6781;58.440;15.470;2023-05-12T06:17:06;101911.66;;;12.32;100.00
13420;BME280;6781;58.440;15.470;2023-05-12T06:19:36;101760.19;;;11.62;100.00
13420;BME280;6781;58.440;15.470;2023-05-12T06:22:04;101827.66;;;12.30;93.07
13420;BME280;6781;58.440;15.470;2023-05-12T06:24:34;101721.34;;;11.73;92.31
13420;BME280;6781;58.440;15.470;2023-05-12T06:27:01;101881.25;;;12.85;94.79
13420;BME280;6781;58.440;15.470;2023-05-12T06:29:28;101729.53;;;12.20;90.06
13420;BME280;6781;58.440;15.470;2023-05-12T06:31:55;101814.91;;;12.78;88.39
13420;BME280;6781;58.440;15.470;2023-05-12T06:34:23;101775.84;;;12.78;85.34
13420;BME280;6781;58.440;15.470;2023-05-12T06:36:50;101771.44;;;12.91;85.28
13420;BME280;6781;58.440;15.470;2023-05-12T06:39:17;101757.81;;;12.88;85.51
13420;BME280;6781;58.440;15.470;2023-05-12T06:41:44;101882.63;;;13.65;84.31
13420;BME280;6781;58.440;15.470;2023-05-12T06:44:11;101856.84;;;13.74;82.54
13420;BME280;6781;58.440;15.470;2023-05-12T06:46:38;101740.88;;;13.19;81.69
13420;BME280;6781;58.440;15.470;2023-05-12T06:49:05;101696.72;;;13.17;80.58
13420;BME280;6781;58.440;15.470;2023-05-12T06:51:34;101864.28;;;14.26;78.60
13420;BME280;6781;58.440;15.470;2023-05-12T06:54:01;101864.16;;;14.27;78.60
13420;BME280;6781;58.440;15.470;2023-05-12T06:56:28;101883.72;;;14.46;78.34
13420;BME280;6781;58.440;15.470;2023-05-12T06:58:56;101873.09;;;14.60;75.71
13420;BME280;6781;58.440;15.470;2023-05-12T07:01:28;101775.66;;;14.24;77.41
13420;BME280;6781;58.440;15.470;2023-05-12T07:03:55;101705.28;;;14.00;75.58
13420;BME280;6781;58.440;15.470;2023-05-12T07:06:22;101771.72;;;14.87;73.10
13420;BME280;6781;58.440;15.470;2023-05-12T07:08:51;101700.50;;;14.63;73.56
13420;BME280;6781;58.440;15.470;2023-05-12T07:11:18;101633.94;;;14.57;73.30
13420;BME280;6781;58.440;15.470;2023-05-12T07:13:46;101747.78;;;15.69;73.48
13420;BME280;6781;58.440;15.470;2023-05-12T07:16:13;101716.78;;;15.85;69.66
13420;BME280;6781;58.440;15.470;2023-05-12T07:18:41;101708.16;;;15.94;66.49
13420;BME280;6781;58.440;15.470;2023-05-12T07:21:08;101831.53;;;16.94;67.69
13420;BME280;6781;58.440;15.470;2023-05-12T07:23:36;101765.69;;;16.56;65.06
13420;BME280;6781;58.440;15.470;2023-05-12T07:26:06;101748.63;;;16.62;62.67
13420;BME280;6781;58.440;15.470;2023-05-12T07:28:34;101840.25;;;17.53;62.90
13420;BME280;6781;58.440;15.470;2023-05-12T07:31:01;101671.97;;;16.60;61.98
13420;BME280;6781;58.440;15.470;2023-05-12T07:33:28;101790.41;;;17.63;61.63
13420;BME280;6781;58.440;15.470;2023-05-12T07:35:56;101640.53;;;16.60;59.63
13420;BME280;6781;58.440;15.470;2023-05-12T07:38:23;101695.41;;;17.11;59.61
13420;BME280;6781;58.440;15.470;2023-05-12T07:40:50;101794.16;;;17.99;59.79
13420;BME280;6781;58.440;15.470;2023-05-12T07:43:18;101739.69;;;18.20;61.73
13420;BME280;6781;58.440;15.470;2023-05-12T07:45:45;101686.97;;;17.46;55.68
13420;BME280;6781;58.440;15.470;2023-05-12T07:48:12;101829.75;;;18.50;54.40
13420;BME280;6781;58.440;15.470;2023-05-12T07:50:39;101710.47;;;17.77;58.20
13420;BME280;6781;58.440;15.470;2023-05-12T07:53:08;101870.16;;;18.49;64.24
13420;BME280;6781;58.440;15.470;2023-05-12T07:55:35;101766.25;;;17.98;62.89
13420;BME280;6781;58.440;15.470;2023-05-12T07:58:02;101887.84;;;18.76;64.85
13420;BME280;6781;58.440;15.470;2023-05-12T08:00:30;101717.22;;;17.50;64.75
13420;BME280;6781;58.440;15.470;2023-05-12T08:02:57;101730.56;;;18.25;66.13
13420;BME280;6781;58.440;15.470;2023-05-12T08:05:24;101810.69;;;18.48;56.67
13420;BME280;6781;58.440;15.470;2023-05-12T08:07:51;101796.94;;;18.73;55.26
13420;BME280;6781;58.440;15.470;2023-05-12T08:10:18;101824.38;;;19.43;56.04
13420;BME280;6781;58.440;15.470;2023-05-12T08:12:45;101767.50;;;19.15;54.64
13420;BME280;6781;58.440;15.470;2023-05-12T08:15:12;101854.03;;;18.91;57.11
13420;BME280;6781;58.440;15.470;2023-05-12T08:17:41;101783.59;;;19.30;60.98
13420;BME280;6781;58.440;15.470;2023-05-12T08:20:11;101723.47;;;19.17;60.61
13420;BME280;6781;58.440;15.470;2023-05-12T08:22:39;101702.03;;;19.12;52.77
13420;BME280;6781;58.440;15.470;2023-05-12T08:25:07;101806.09;;;19.87;50.03
13420;BME280;6781;58.440;15.470;2023-05-12T08:27:34;101838.53;;;20.49;53.24
13420;BME280;6781;58.440;15.470;2023-05-12T08:30:01;101677.25;;;19.32;52.95
13420;BME280;6781;58.440;15.470;2023-05-12T08:32:28;101788.75;;;20.02;51.85
13420;BME280;6781;58.440;15.470;2023-05-12T08:34:57;101622.56;;;19.62;53.01
13420;BME280;6781;58.440;15.470;2023-05-12T08:37:24;101693.78;;;19.25;47.66
13420;BME280;6781;58.440;15.470;2023-05-12T08:39:51;101765.28;;;19.91;50.12
13420;BME280;6781;58.440;15.470;2023-05-12T08:42:30;101620.94;;;19.25;48.56
13420;BME280;6781;58.440;15.470;2023-05-12T08:45:01;101744.56;;;20.82;47.52
13420;BME280;6781;58.440;15.470;2023-05-12T08:47:30;101765.13;;;20.62;44.63
13420;BME280;6781;58.440;15.470;2023-05-12T08:50:01;101640.47;;;20.44;44.73
13420;BME280;6781;58.440;15.470;2023-05-12T08:52:31;101788.56;;;20.73;43.94
13420;BME280;6781;58.440;15.470;2023-05-12T08:54:59;101782.84;;;21.44;43.60
13420;BME280;6781;58.440;15.470;2023-05-12T08:57:26;101693.63;;;20.73;42.04
13420;BME280;6781;58.440;15.470;2023-05-12T08:59:54;101563.88;;;19.00;41.97
13420;BME280;6781;58.440;15.470;2023-05-12T09:02:22;101643.66;;;20.30;42.41
13420;BME280;6781;58.440;15.470;2023-05-12T09:04:49;101609.38;;;20.22;42.72
13420;BME280;6781;58.440;15.470;2023-05-12T09:07:18;101703.09;;;21.08;44.26
13420;BME280;6781;58.440;15.470;2023-05-12T09:09:47;101781.34;;;20.84;41.07
13420;BME280;6781;58.440;15.470;2023-05-12T09:12:18;101766.41;;;20.58;41.17
13420;BME280;6781;58.440;15.470;2023-05-12T09:14:52;101790.81;;;21.69;42.85
13420;BME280;6781;58.440;15.470;2023-05-12T09:17:27;101671.28;;;21.83;43.16
13420;BME280;6781;58.440;15.470;2023-05-12T09:19:54;101700.56;;;22.37;43.10
13420;BME280;6781;58.440;15.470;2023-05-12T09:22:32;101776.22;;;22.93;39.27
13420;BME280;6781;58.440;15.470;2023-05-12T09:25:00;101603.47;;;22.23;42.08
13420;BME280;6781;58.440;15.470;2023-05-12T09:27:29;101550.38;;;21.93;38.98
13420;BME280;6781;58.440;15.470;2023-05-12T09:29:56;101577.13;;;21.90;37.94
13420;BME280;6781;58.440;15.470;2023-05-12T09:32:30;101733.31;;;22.28;35.12
13420;BME280;6781;58.440;15.470;2023-05-12T09:35:01;101626.94;;;22.18;36.03
13420;BME280;6781;58.440;15.470;2023-05-12T09:37:34;101512.75;;;21.11;35.41
13420;BME280;6781;58.440;15.470;2023-05-12T09:40:01;101620.44;;;22.59;39.00
13420;BME280;6781;58.440;15.470;2023-05-12T09:42:31;101663.34;;;22.69;36.21
13420;BME280;6781;58.440;15.470;2023-05-12T09:44:59;101740.00;;;22.94;35.27
13420;BME280;6781;58.440;15.470;2023-05-12T09:47:32;101541.50;;;21.78;35.55
13420;BME280;6781;58.440;15.470;2023-05-12T09:50:01;101588.59;;;22.98;39.28
13420;BME280;6781;58.440;15.470;2023-05-12T09:52:30;101623.41;;;23.10;36.04
13420;BME280;6781;58.440;15.470;2023-05-12T09:55:09;101735.59;;;24.30;35.80
13420;BME280;6781;58.440;15.470;2023-05-12T09:57:39;101615.47;;;23.48;32.97
13420;BME280;6781;58.440;15.470;2023-05-12T10:00:08;101739.97;;;23.48;32.56
13420;BME280;6781;58.440;15.470;2023-05-12T10:02:38;101634.53;;;23.66;33.32
13420;BME280;6781;58.440;15.470;2023-05-12T10:05:11;101646.97;;;24.24;34.03
13420;BME280;6781;58.440;15.470;2023-05-12T10:07:43;101599.34;;;24.16;34.98
13420;BME280;6781;58.440;15.470;2023-05-12T10:10:24;101616.63;;;23.97;34.89
13420;BME280;6781;58.440;15.470;2023-05-12T10:12:52;101711.91;;;24.43;33.62
13420;BME280;6781;58.440;15.470;2023-05-12T10:15:21;101656.47;;;23.60;32.50
13420;BME280;6781;58.440;15.470;2023-05-12T10:17:51;101725.03;;;24.81;32.67
13420;BME280;6781;58.440;15.470;2023-05-12T10:20:23;101682.66;;;24.07;33.47
13420;BME280;6781;58.440;15.470;2023-05-12T10:22:55;101603.53;;;21.98;31.79
13420;BME280;6781;58.440;15.470;2023-05-12T10:25:25;101516.63;;;22.12;32.96
13420;BME280;6781;58.440;15.470;2023-05-12T10:27:55;101688.28;;;21.81;32.42
13420;BME280;6781;58.440;15.470;2023-05-12T10:30:23;101533.72;;;21.13;33.45
13420;BME280;6781;58.440;15.470;2023-05-12T10:32:50;101737.28;;;22.24;32.50
13420;BME280;6781;58.440;15.470;2023-05-12T10:35:17;101750.00;;;23.98;36.85
13420;BME280;6781;58.440;15.470;2023-05-12T10:37:45;101526.22;;;23.33;34.48
13420;BME280;6781;58.440;15.470;2023-05-12T10:40:25;101770.59;;;24.84;34.98
13420;BME280;6781;58.440;15.470;2023-05-12T10:42:57;101714.09;;;24.25;33.34
13420;BME280;6781;58.440;15.470;2023-05-12T10:45:24;101599.00;;;23.90;33.76
13420;BME280;6781;58.440;15.470;2023-05-12T10:47:51;101591.47;;;23.49;31.83
13420;BME280;6781;58.440;15.470;2023-05-12T10:50:26;101569.03;;;23.22;33.35
13420;BME280;6781;58.440;15.470;2023-05-12T10:52:53;101712.03;;;23.22;31.77
13420;BME280;6781;58.440;15.470;2023-05-12T10:55:31;101717.84;;;23.18;32.63
13420;BME280;6781;58.440;15.470;2023-05-12T10:58:07;101632.16;;;21.79;33.10
13420;BME280;6781;58.440;15.470;2023-05-12T11:00:51;101743.78;;;23.22;34.01
13420;BME280;6781;58.440;15.470;2023-05-12T11:03:24;101581.72;;;22.04;32.54
13420;BME280;6781;58.440;15.470;2023-05-12T11:06:28;101505.34;;;21.07;32.25
13420;BME280;6781;58.440;15.470;2023-05-12T11:09:06;101506.34;;;20.98;34.70
13420;BME280;6781;58.440;15.470;2023-05-12T11:11:37;101652.06;;;22.53;35.26
13420;BME280;6781;58.440;15.470;2023-05-12T11:14:05;101723.44;;;23.46;36.38
13420;BME280;6781;58.440;15.470;2023-05-12T11:16:40;101669.97;;;22.43;35.11
13420;BME280;6781;58.440;15.470;2023-05-12T11:19:08;101698.34;;;21.93;34.48
13420;BME280;6781;58.440;15.470;2023-05-12T11:21:52;101544.09;;;20.82;35.64
13420;BME280;6781;58.440;15.470;2023-05-12T11:24:24;101652.50;;;21.46;35.42
13420;BME280;6781;58.440;15.470;2023-05-12T11:26:53;101499.63;;;20.71;35.03
13420;BME280;6781;58.440;15.470;2023-05-12T11:29:26;101638.31;;;21.47;35.36
13420;BME280;6781;58.440;15.470;2023-05-12T11:31:56;101731.34;;;21.97;35.18
13420;BME280;6781;58.440;15.470;2023-05-12T11:34:25;101590.44;;;21.09;35.12
13420;BME280;6781;58.440;15.470;2023-05-12T11:36:55;101725.75;;;22.00;35.67
13420;BME280;6781;58.440;15.470;2023-05-12T11:39:23;101721.16;;;21.62;35.23
13420;BME280;6781;58.440;15.470;2023-05-12T11:41:53;101748.88;;;22.06;35.61
13420;BME280;6781;58.440;15.470;2023-05-12T11:44:22;101614.56;;;21.38;36.44
13420;BME280;6781;58.440;15.470;2023-05-12T11:47:11;101652.91;;;22.14;35.56
13420;BME280;6781;58.440;15.470;2023-05-12T11:49:46;101522.84;;;20.92;35.07
13420;BME280;6781;58.440;15.470;2023-05-12T11:52:19;101614.38;;;22.20;34.99
13420;BME280;6781;58.440;15.470;2023-05-12T11:54:47;101575.19;;;22.23;34.50
13420;BME280;6781;58.440;15.470;2023-05-12T11:57:27;101573.91;;;23.33;35.24
13420;BME280;6781;58.440;15.470;2023-05-12T11:59:59;101498.88;;;22.89;33.64
13420;BME280;6781;58.440;15.470;2023-05-12T12:02:27;101708.28;;;24.80;34.61
13420;BME280;6781;58.440;15.470;2023-05-12T12:04:55;101564.19;;;24.29;34.69
13420;BME280;6781;58.440;15.470;2023-05-12T12:07:27;101699.69;;;25.63;33.78
13420;BME280;6781;58.440;15.470;2023-05-12T12:09:55;101682.47;;;25.10;31.89
13420;BME280;6781;58.440;15.470;2023-05-12T12:12:26;101642.31;;;23.82;32.50
13420;BME280;6781;58.440;15.470;2023-05-12T12:14:54;101698.31;;;23.42;32.42
13420;BME280;6781;58.440;15.470;2023-05-12T12:17:25;101585.28;;;23.19;33.27
13420;BME280;6781;58.440;15.470;2023-05-12T12:19:55;101593.00;;;23.44;32.61
13420;BME280;6781;58.440;15.470;2023-05-12T12:22:22;101679.16;;;23.77;33.05
13420;BME280;6781;58.440;15.470;2023-05-12T12:24:49;101638.94;;;23.36;34.07
13420;BME280;6781;58.440;15.470;2023-05-12T12:27:20;101574.75;;;23.49;34.37
13420;BME280;6781;58.440;15.470;2023-05-12T12:29:49;101695.97;;;23.84;34.22
13420;BME280;6781;58.440;15.470;2023-05-12T12:32:16;101655.00;;;23.34;34.88
13420;BME280;6781;58.440;15.470;2023-05-12T12:34:43;101595.66;;;23.06;34.68
13420;BME280;6781;58.440;15.470;2023-05-12T12:37:10;101699.81;;;24.55;35.34
13420;BME280;6781;58.440;15.470;2023-05-12T12:39:38;101673.22;;;24.34;32.97
13420;BME280;6781;58.440;15.470;2023-05-12T12:42:05;101540.00;;;23.14;33.78
13420;BME280;6781;58.440;15.470;2023-05-12T12:44:32;101599.06;;;24.11;34.08
13420;BME280;6781;58.440;15.470;2023-05-12T12:47:09;101558.97;;;23.85;35.20
13420;BME280;6781;58.440;15.470;2023-05-12T12:49:40;101685.81;;;24.47;33.33
13420;BME280;6781;58.440;15.470;2023-05-12T12:52:07;101541.81;;;23.14;33.26
13420;BME280;6781;58.440;15.470;2023-05-12T12:54:35;101480.88;;;22.84;33.97
13420;BME280;6781;58.440;15.470;2023-05-12T12:57:02;101463.66;;;23.03;35.64
13420;BME280;6781;58.440;15.470;2023-05-12T12:59:29;101675.53;;;24.94;35.35
13420;BME280;6781;58.440;15.470;2023-05-12T13:01:57;101609.47;;;24.63;33.56